createdAt,value
2023-05-16T00:00:48.864Z,30.20
2023-05-16T00:03:15.907Z,23.10
2023-05-16T00:05:42.946Z,27.30
2023-05-16T00:08:09.997Z,35.35
2023-05-16T00:10:37.685Z,31.90
2023-05-16T00:13:04.687Z,30.75
2023-05-16T00:15:31.640Z,28.83
2023-05-16T00:17:59.383Z,32.58
2023-05-16T00:20:28.496Z,30.40
2023-05-16T00:22:56.238Z,30.88
2023-05-16T00:25:23.615Z,31.25
2023-05-16T00:27:50.703Z,26.63
2023-05-16T00:30:17.845Z,27.75
2023-05-16T00:32:44.910Z,34.70
2023-05-16T00:35:12.485Z,29.25
2023-05-16T00:37:40.233Z,27.10
2023-05-16T00:40:08.423Z,24.98
2023-05-16T00:42:36.610Z,25.20
2023-05-16T00:45:06.398Z,25.70
2023-05-16T00:47:33.580Z,25.20
2023-05-16T00:53:07.688Z,23.08
2023-05-16T00:55:37.740Z,26.30
2023-05-16T00:58:06.544Z,30.10
2023-05-16T01:00:34.143Z,28.60
2023-05-16T01:03:01.601Z,23.25
2023-05-16T01:05:29.644Z,27.90
2023-05-16T01:07:56.970Z,23.15
2023-05-16T01:10:25.012Z,22.65
2023-05-16T01:13:11.451Z,27.90
2023-05-16T01:16:30.143Z,23.00
2023-05-16T01:19:44.049Z,26.55
2023-05-16T01:22:48.231Z,25.02
2023-05-16T01:26:13.955Z,26.83
2023-05-16T01:28:47.485Z,26.48
2023-05-16T01:31:15.152Z,25.15
2023-05-16T01:33:42.998Z,24.48
2023-05-16T01:36:48.163Z,26.35
2023-05-16T01:39:47.391Z,24.40
2023-05-16T01:42:16.357Z,28.00
2023-05-16T01:45:00.234Z,23.85
2023-05-16T01:47:33.451Z,25.13
2023-05-16T01:50:17.796Z,27.88
2023-05-16T01:52:51.048Z,28.20
2023-05-16T01:55:33.514Z,31.08
2023-05-16T01:58:04.749Z,32.72
2023-05-16T02:00:34.661Z,27.38
2023-05-16T02:03:02.732Z,25.75
2023-05-16T02:05:29.989Z,24.70
2023-05-16T02:07:59.618Z,27.90
2023-05-16T02:10:28.327Z,24.88
2023-05-16T02:12:55.550Z,26.38
2023-05-16T02:15:23.020Z,27.73
2023-05-16T02:17:50.028Z,30.58
2023-05-16T02:20:17.268Z,27.38
2023-05-16T02:22:44.629Z,28.95
2023-05-16T02:25:11.630Z,27.42
2023-05-16T02:27:38.773Z,28.17
2023-05-16T02:30:06.684Z,30.77
2023-05-16T02:32:34.001Z,30.63
2023-05-16T02:35:01.175Z,31.90
2023-05-16T02:37:28.427Z,34.50
2023-05-16T02:39:55.398Z,30.25
2023-05-16T02:42:22.480Z,28.80
2023-05-16T02:44:49.605Z,31.30
2023-05-16T02:47:17.729Z,31.48
2023-05-16T02:49:44.712Z,33.05
2023-05-16T02:52:11.980Z,28.80
2023-05-16T02:54:38.970Z,33.58
2023-05-16T02:57:06.028Z,32.95
2023-05-16T02:59:33.028Z,36.10
2023-05-16T03:01:59.971Z,34.20
2023-05-16T03:04:27.172Z,34.78
2023-05-16T03:06:54.399Z,34.80
2023-05-16T03:09:21.800Z,38.35
2023-05-16T03:11:48.893Z,39.00
2023-05-16T03:14:15.878Z,38.70
2023-05-16T03:16:43.995Z,38.75
2023-05-16T03:19:11.390Z,37.33
2023-05-16T03:21:38.325Z,36.53
2023-05-16T03:24:06.782Z,40.10
2023-05-16T03:26:33.803Z,40.50
2023-05-16T03:29:01.016Z,39.05
2023-05-16T03:31:28.042Z,36.80
2023-05-16T03:33:55.056Z,40.58
2023-05-16T03:36:24.307Z,39.65
2023-05-16T03:38:51.498Z,40.65
2023-05-16T03:41:19.990Z,54.22
2023-05-16T03:43:47.107Z,53.55
2023-05-16T03:46:14.882Z,59.35
2023-05-16T03:48:43.906Z,58.78
2023-05-16T03:51:10.996Z,48.95
2023-05-16T03:53:38.221Z,57.10
2023-05-16T03:56:06.158Z,60.58
2023-05-16T03:58:33.591Z,57.03
2023-05-16T04:01:00.884Z,53.70
2023-05-16T04:03:29.743Z,53.75
2023-05-16T04:05:57.606Z,54.08
2023-05-16T04:08:24.660Z,52.80
2023-05-16T04:10:52.073Z,48.78
2023-05-16T04:13:19.256Z,48.45
2023-05-16T04:15:46.303Z,47.38
2023-05-16T04:18:13.720Z,45.50
2023-05-16T04:20:43.556Z,42.50
2023-05-16T04:23:12.017Z,34.92
2023-05-16T04:25:39.513Z,39.05
2023-05-16T04:28:07.482Z,40.15
2023-05-16T04:30:34.748Z,40.08
2023-05-16T04:33:05.215Z,39.75
2023-05-16T04:35:33.442Z,35.53
2023-05-16T04:38:04.213Z,41.97
2023-05-16T04:40:31.346Z,41.33
2023-05-16T04:42:59.862Z,39.85
2023-05-16T04:45:27.109Z,38.15
2023-05-16T04:47:54.249Z,39.92
2023-05-16T04:50:21.255Z,37.33
2023-05-16T04:52:48.154Z,30.33
2023-05-16T04:55:15.493Z,34.17
2023-05-16T04:57:42.836Z,32.25
2023-05-16T05:00:11.994Z,37.03
2023-05-16T05:02:39.781Z,35.47
2023-05-16T05:05:08.495Z,32.47
2023-05-16T05:07:35.908Z,33.03
2023-05-16T05:10:02.916Z,37.92
2023-05-16T05:12:30.054Z,36.75
2023-05-16T05:14:58.478Z,31.70
2023-05-16T05:17:26.071Z,35.38
2023-05-16T05:19:53.816Z,33.47
2023-05-16T05:22:21.261Z,33.20
2023-05-16T05:24:48.790Z,32.28
2023-05-16T05:27:21.793Z,32.75
2023-05-16T05:29:51.596Z,36.22
2023-05-16T05:32:19.302Z,35.45
2023-05-16T05:34:52.629Z,36.42
2023-05-16T05:37:20.696Z,35.90
2023-05-16T05:39:47.910Z,36.28
2023-05-16T05:42:15.617Z,35.17
2023-05-16T05:44:42.605Z,32.35
2023-05-16T05:47:10.169Z,40.63
2023-05-16T05:49:37.785Z,33.22
2023-05-16T05:52:05.010Z,33.42
2023-05-16T05:54:32.295Z,38.38
2023-05-16T05:56:59.444Z,35.28
2023-05-16T05:59:27.555Z,29.77
2023-05-16T06:01:54.665Z,30.38
2023-05-16T06:04:22.379Z,29.88
2023-05-16T06:06:49.530Z,31.30
2023-05-16T06:09:16.776Z,33.20
2023-05-16T06:11:45.856Z,30.92
2023-05-16T06:14:16.270Z,33.28
2023-05-16T06:16:44.693Z,32.80
2023-05-16T06:19:16.096Z,33.97
2023-05-16T06:21:44.464Z,42.53
2023-05-16T06:24:12.453Z,35.35
2023-05-16T06:26:41.822Z,36.55
2023-05-16T06:29:08.918Z,34.47
2023-05-16T06:31:38.350Z,31.92
2023-05-16T06:34:05.364Z,40.38
2023-05-16T06:36:32.596Z,41.70
2023-05-16T06:38:59.615Z,40.65
2023-05-16T06:41:27.035Z,43.90
2023-05-16T06:43:54.026Z,49.25
2023-05-16T06:46:21.472Z,48.30
2023-05-16T06:48:48.458Z,42.53
2023-05-16T06:51:16.217Z,45.33
2023-05-16T06:53:43.403Z,49.20
2023-05-16T06:56:10.591Z,46.15
2023-05-16T06:58:37.593Z,44.70
2023-05-16T07:01:05.105Z,45.78
2023-05-16T07:03:32.593Z,45.53
2023-05-16T07:06:00.916Z,45.67
2023-05-16T07:08:28.480Z,44.03
2023-05-16T07:11:46.771Z,40.03
2023-05-16T07:14:13.902Z,40.17
2023-05-16T07:16:42.615Z,37.72
2023-05-16T07:19:10.326Z,33.95
2023-05-16T07:21:37.302Z,32.75
2023-05-16T07:24:05.099Z,33.83
2023-05-16T07:26:32.422Z,29.15
2023-05-16T07:28:59.467Z,30.08
2023-05-16T07:31:27.092Z,29.00
2023-05-16T07:33:54.278Z,33.38
2023-05-16T07:36:22.093Z,29.85
2023-05-16T07:38:49.144Z,32.35
2023-05-16T07:41:16.520Z,35.25
2023-05-16T07:43:44.187Z,33.03
2023-05-16T07:46:12.056Z,30.20
2023-05-16T07:48:41.004Z,25.08
2023-05-16T07:51:08.090Z,29.58
2023-05-16T07:53:35.741Z,25.10
2023-05-16T07:56:04.050Z,30.73
2023-05-16T07:58:31.454Z,24.63
2023-05-16T08:00:58.877Z,23.30
2023-05-16T08:03:26.307Z,22.48
2023-05-16T08:05:53.813Z,22.20
2023-05-16T08:08:21.493Z,20.02
2023-05-16T08:10:48.665Z,24.95
2023-05-16T08:13:15.667Z,25.50
2023-05-16T08:15:43.821Z,19.75
2023-05-16T08:18:16.546Z,23.00
2023-05-16T08:20:43.967Z,19.75
2023-05-16T08:23:11.588Z,20.00
2023-05-16T08:25:39.181Z,22.08
2023-05-16T08:28:06.217Z,18.00
2023-05-16T08:30:33.629Z,23.25
2023-05-16T08:33:05.013Z,19.73
2023-05-16T08:35:35.683Z,18.45
2023-05-16T08:38:03.480Z,18.30
2023-05-16T08:40:31.424Z,22.35
2023-05-16T08:43:01.633Z,20.25
2023-05-16T08:45:31.206Z,18.85
2023-05-16T08:48:02.394Z,20.70
2023-05-16T08:50:33.891Z,19.45
2023-05-16T08:53:09.485Z,20.10
2023-05-16T08:55:39.566Z,25.17
2023-05-16T08:58:07.781Z,23.15
2023-05-16T09:00:36.808Z,17.95
2023-05-16T09:03:05.866Z,17.95
2023-05-16T09:05:33.683Z,18.35
2023-05-16T09:08:00.745Z,16.02
2023-05-16T09:10:28.736Z,18.55
2023-05-16T09:12:57.137Z,19.33
2023-05-16T09:15:31.461Z,20.48
2023-05-16T09:18:04.528Z,20.73
2023-05-16T09:20:31.729Z,18.05
2023-05-16T09:23:00.288Z,17.02
2023-05-16T09:25:32.289Z,17.15
2023-05-16T09:28:02.751Z,16.65
2023-05-16T09:30:34.140Z,16.33
2023-05-16T09:33:02.623Z,16.73
2023-05-16T09:35:43.963Z,20.48
2023-05-16T09:38:17.933Z,14.55
2023-05-16T09:40:46.229Z,18.15
2023-05-16T09:43:17.806Z,14.65
2023-05-16T09:45:49.325Z,17.30
2023-05-16T09:48:18.516Z,18.90
2023-05-16T09:50:54.749Z,17.73
2023-05-16T09:53:30.790Z,19.67
2023-05-16T09:56:11.316Z,17.05
2023-05-16T09:58:41.529Z,14.20
2023-05-16T10:01:10.840Z,12.30
2023-05-16T10:03:44.602Z,13.93
2023-05-16T10:06:13.866Z,11.68
2023-05-16T10:08:43.798Z,15.75
2023-05-16T10:11:12.130Z,16.88
2023-05-16T10:13:41.626Z,15.45
2023-05-16T10:16:14.383Z,11.32
2023-05-16T10:18:43.497Z,11.70
2023-05-16T10:21:17.078Z,10.90
2023-05-16T10:23:48.948Z,10.07
2023-05-16T10:26:18.583Z,11.77
2023-05-16T10:28:46.268Z,13.85
2023-05-16T10:31:15.552Z,12.48
2023-05-16T10:33:45.402Z,10.40
2023-05-16T10:36:14.841Z,13.38
2023-05-16T10:38:43.791Z,14.48
2023-05-16T10:41:12.482Z,11.00
2023-05-16T10:43:39.938Z,12.68
2023-05-16T10:46:11.772Z,14.32
2023-05-16T10:48:41.604Z,13.18
2023-05-16T10:51:26.555Z,10.35
2023-05-16T10:53:55.460Z,10.52
2023-05-16T10:56:30.818Z,10.55
2023-05-16T10:59:00.603Z,10.63
2023-05-16T11:01:36.431Z,10.57
2023-05-16T11:04:08.989Z,10.70
2023-05-16T11:06:42.214Z,11.77
2023-05-16T11:09:24.140Z,8.27
2023-05-16T11:12:04.819Z,10.23
2023-05-16T11:14:39.055Z,9.82
2023-05-16T11:17:18.355Z,7.68
2023-05-16T11:19:59.673Z,7.50
2023-05-16T11:22:34.424Z,7.95
2023-05-16T11:25:08.328Z,10.27
2023-05-16T11:27:44.071Z,7.82
2023-05-16T11:30:16.195Z,7.22
2023-05-16T11:32:46.542Z,8.25
2023-05-16T11:35:18.256Z,7.47
2023-05-16T11:37:47.152Z,8.80
2023-05-16T11:40:19.065Z,8.40
2023-05-16T11:42:49.345Z,6.90
2023-05-16T11:45:20.203Z,8.00
2023-05-16T11:47:49.721Z,9.18
2023-05-16T11:50:20.660Z,6.32
2023-05-16T11:52:54.102Z,6.05
2023-05-16T11:55:41.028Z,7.68
2023-05-16T11:58:10.560Z,9.38
2023-05-16T12:00:49.868Z,6.38
2023-05-16T12:03:21.238Z,6.78
2023-05-16T12:07:21.335Z,7.03
2023-05-16T12:09:58.093Z,5.25
2023-05-16T12:12:26.230Z,8.80
2023-05-16T12:14:57.585Z,6.43
2023-05-16T12:17:29.582Z,6.50
2023-05-16T12:19:58.665Z,7.78
2023-05-16T12:22:26.571Z,8.00
2023-05-16T12:24:54.424Z,7.25
2023-05-16T12:27:34.082Z,3.97
2023-05-16T12:30:01.366Z,7.47
2023-05-16T12:32:28.482Z,8.23
2023-05-16T12:34:56.281Z,4.88
2023-05-16T12:37:23.501Z,7.78
2023-05-16T12:39:54.342Z,5.28
2023-05-16T12:42:23.459Z,6.28
2023-05-16T12:44:56.761Z,7.60
2023-05-16T12:47:25.078Z,8.43
2023-05-16T12:49:52.079Z,7.22
2023-05-16T12:52:21.204Z,5.00
2023-05-16T12:54:49.563Z,7.90
2023-05-16T12:57:16.643Z,5.15
2023-05-16T12:59:45.818Z,4.57
2023-05-16T13:02:13.048Z,4.50
2023-05-16T13:04:40.428Z,8.15
2023-05-16T13:07:08.070Z,4.63
2023-05-16T13:09:36.678Z,5.95
2023-05-16T13:12:04.778Z,6.50
2023-05-16T13:14:34.009Z,8.65
2023-05-16T13:17:01.744Z,5.72
2023-05-16T13:19:31.952Z,7.20
2023-05-16T13:21:58.985Z,6.38
2023-05-16T13:24:26.163Z,7.65
2023-05-16T13:26:54.069Z,8.25
2023-05-16T13:29:21.004Z,6.03
2023-05-16T13:31:49.011Z,6.32
2023-05-16T13:34:16.660Z,5.28
2023-05-16T13:36:54.035Z,6.75
2023-05-16T13:39:22.852Z,5.68
2023-05-16T13:41:51.694Z,6.00
2023-05-16T13:44:19.087Z,7.68
2023-05-16T13:46:46.944Z,5.82
2023-05-16T13:49:13.999Z,5.60
2023-05-16T13:51:41.628Z,5.53
2023-05-16T13:54:08.825Z,4.72
2023-05-16T13:56:35.903Z,3.55
2023-05-16T13:59:06.861Z,4.85
2023-05-16T14:01:35.053Z,4.68
2023-05-16T14:04:03.305Z,5.00
2023-05-16T14:06:31.548Z,8.35
2023-05-16T14:09:01.505Z,6.65
2023-05-16T14:11:29.441Z,7.28
2023-05-16T14:14:00.527Z,4.32
2023-05-16T14:16:28.057Z,5.40
2023-05-16T14:18:55.132Z,4.45
2023-05-16T14:21:23.835Z,8.50
2023-05-16T14:23:51.107Z,5.85
2023-05-16T14:26:22.467Z,4.25
2023-05-16T14:28:49.441Z,3.78
2023-05-16T14:31:16.696Z,4.03
2023-05-16T14:33:44.658Z,6.90
2023-05-16T14:36:14.258Z,7.63
2023-05-16T14:38:41.708Z,6.00
2023-05-16T14:41:10.624Z,6.47
2023-05-16T14:43:38.551Z,7.55
2023-05-16T14:46:06.353Z,9.18
2023-05-16T14:48:35.929Z,6.13
2023-05-16T14:51:05.278Z,10.65
2023-05-16T14:53:32.826Z,7.10
2023-05-16T14:56:00.172Z,6.22
2023-05-16T14:58:27.506Z,6.15
2023-05-16T15:00:56.439Z,7.93
2023-05-16T15:03:23.609Z,8.48
2023-05-16T15:05:51.062Z,8.50
2023-05-16T15:08:19.579Z,8.65
2023-05-16T15:10:47.058Z,8.52
2023-05-16T15:13:14.051Z,7.45
2023-05-16T15:15:42.083Z,7.15
2023-05-16T15:18:11.247Z,4.93
2023-05-16T15:20:39.718Z,8.88
2023-05-16T15:23:06.901Z,5.82
2023-05-16T15:25:34.605Z,5.45
2023-05-16T15:28:03.209Z,8.63
2023-05-16T15:30:30.360Z,6.47
2023-05-16T15:32:57.321Z,7.95
2023-05-16T15:35:24.718Z,8.25
2023-05-16T15:37:53.054Z,4.07
2023-05-16T15:40:25.077Z,5.05
2023-05-16T15:42:54.283Z,9.07
2023-05-16T15:45:21.398Z,7.35
2023-05-16T15:47:48.649Z,6.20
2023-05-16T15:50:18.699Z,6.70
2023-05-16T15:52:45.833Z,7.20
2023-05-16T15:55:12.984Z,9.25
2023-05-16T15:57:40.547Z,11.65
2023-05-16T16:00:09.736Z,7.60
2023-05-16T16:02:40.518Z,4.60
2023-05-16T16:05:08.499Z,4.65
2023-05-16T16:07:35.712Z,5.93
2023-05-16T16:10:02.873Z,6.57
2023-05-16T16:12:31.233Z,8.73
2023-05-16T16:14:58.719Z,15.50
2023-05-16T16:17:25.924Z,6.45
2023-05-16T16:19:53.867Z,6.60
2023-05-16T16:22:22.570Z,4.97
2023-05-16T16:24:50.408Z,6.93
2023-05-16T16:27:17.463Z,8.63
2023-05-16T16:29:44.434Z,5.45
2023-05-16T16:32:11.412Z,8.48
2023-05-16T16:34:38.396Z,5.78
2023-05-16T16:37:05.645Z,5.15
2023-05-16T16:39:33.386Z,11.13
2023-05-16T16:42:07.465Z,7.82
2023-05-16T16:44:35.550Z,7.90
2023-05-16T16:47:03.041Z,5.30
2023-05-16T16:49:32.754Z,3.38
2023-05-16T16:51:59.908Z,4.30
2023-05-16T16:54:28.065Z,7.70
2023-05-16T16:56:56.521Z,5.22
2023-05-16T16:59:23.958Z,5.95
2023-05-16T17:01:52.316Z,6.63
2023-05-16T17:04:19.961Z,7.55
2023-05-16T17:06:48.632Z,6.40
2023-05-16T17:09:18.437Z,4.70
2023-05-16T17:11:46.820Z,4.32
2023-05-16T17:14:15.364Z,5.13
2023-05-16T17:16:44.136Z,5.47
2023-05-16T17:19:11.737Z,7.47
2023-05-16T17:21:40.623Z,7.07
2023-05-16T17:24:08.315Z,6.05
2023-05-16T17:26:36.155Z,4.78
2023-05-16T17:29:06.916Z,7.13
2023-05-16T17:31:36.422Z,4.45
2023-05-16T17:34:03.477Z,4.78
2023-05-16T17:36:31.331Z,4.18
2023-05-16T17:38:59.254Z,8.15
2023-05-16T17:41:27.456Z,6.47
2023-05-16T17:43:54.567Z,5.57
2023-05-16T17:46:21.599Z,5.78
2023-05-16T17:48:49.656Z,3.40
2023-05-16T17:51:18.767Z,6.22
2023-05-16T17:53:46.416Z,5.90
2023-05-16T17:56:14.537Z,4.68
2023-05-16T17:58:42.638Z,6.30
2023-05-16T18:01:10.353Z,6.68
2023-05-16T18:03:38.650Z,5.78
2023-05-16T18:06:06.980Z,5.75
2023-05-16T18:08:34.096Z,6.78
2023-05-16T18:11:01.894Z,7.63
2023-05-16T18:13:29.558Z,4.18
2023-05-16T18:15:56.488Z,5.22
2023-05-16T18:18:24.988Z,4.47
2023-05-16T18:20:52.808Z,4.43
2023-05-16T18:23:21.067Z,5.05
2023-05-16T18:25:49.503Z,4.65
2023-05-16T18:28:17.103Z,3.58
2023-05-16T18:30:44.855Z,7.35
2023-05-16T18:33:12.482Z,4.10
2023-05-16T18:35:42.052Z,3.13
2023-05-16T18:38:20.182Z,5.10
2023-05-16T18:40:56.074Z,7.47
2023-05-16T18:43:23.492Z,7.60
2023-05-16T18:45:51.075Z,4.68
2023-05-16T18:48:19.288Z,6.35
2023-05-16T18:50:50.124Z,4.82
2023-05-16T18:53:17.719Z,5.60
2023-05-16T18:55:46.026Z,4.68
2023-05-16T18:58:13.882Z,5.55
2023-05-16T19:00:42.106Z,5.10
2023-05-16T19:03:10.079Z,4.07
2023-05-16T19:05:38.123Z,6.45
2023-05-16T19:08:06.359Z,7.22
2023-05-16T19:10:38.110Z,5.72
2023-05-16T19:13:09.131Z,8.95
2023-05-16T19:15:38.057Z,5.70
2023-05-16T19:18:06.742Z,7.35
2023-05-16T19:20:37.001Z,7.03
2023-05-16T19:23:05.120Z,6.07
2023-05-16T19:25:34.094Z,5.68
2023-05-16T19:28:02.267Z,9.85
2023-05-16T19:30:30.356Z,4.82
2023-05-16T19:32:58.477Z,3.95
2023-05-16T19:35:27.109Z,8.10
2023-05-16T19:37:55.701Z,7.15
2023-05-16T19:40:23.597Z,4.65
2023-05-16T19:42:51.753Z,7.78
2023-05-16T19:45:19.951Z,10.00
2023-05-16T19:47:48.021Z,6.93
2023-05-16T19:50:17.466Z,9.75
2023-05-16T19:52:45.779Z,8.23
2023-05-16T19:55:15.398Z,7.20
2023-05-16T19:57:43.380Z,7.10
2023-05-16T20:00:11.931Z,11.52
2023-05-16T20:02:43.146Z,11.18
2023-05-16T20:05:11.449Z,9.02
2023-05-16T20:07:40.690Z,8.68
2023-05-16T20:10:09.776Z,8.55
2023-05-16T20:12:38.335Z,8.00
2023-05-16T20:15:08.416Z,4.25
2023-05-16T20:17:36.577Z,8.60
2023-05-16T20:20:06.807Z,7.20
2023-05-16T20:22:35.285Z,8.02
2023-05-16T20:25:02.715Z,8.60
2023-05-16T20:27:31.947Z,7.57
2023-05-16T20:30:00.545Z,10.27
2023-05-16T20:32:29.182Z,7.85
2023-05-16T20:34:58.432Z,7.53
2023-05-16T20:37:26.798Z,6.18
2023-05-16T20:39:57.058Z,6.70
2023-05-16T20:42:24.830Z,7.65
2023-05-16T20:44:52.823Z,8.07
2023-05-16T20:47:20.963Z,8.68
2023-05-16T20:49:48.341Z,9.27
2023-05-16T20:52:19.392Z,6.55
2023-05-16T20:54:49.412Z,9.15
2023-05-16T20:57:17.718Z,5.88
2023-05-16T20:59:46.272Z,10.43
2023-05-16T21:02:14.330Z,7.57
2023-05-16T21:04:41.888Z,8.57
2023-05-16T21:07:11.332Z,9.23
2023-05-16T21:09:39.697Z,8.00
2023-05-16T21:12:07.641Z,8.07
2023-05-16T21:14:35.114Z,6.10
2023-05-16T21:17:02.677Z,7.78
2023-05-16T21:19:34.525Z,4.53
2023-05-16T21:22:04.043Z,7.78
2023-05-16T21:24:35.403Z,7.78
2023-05-16T21:27:05.152Z,7.60
2023-05-16T21:33:07.892Z,3.28
2023-05-16T21:47:18.439Z,6.00
2023-05-16T21:49:45.956Z,4.00
2023-05-16T21:52:14.055Z,6.82
2023-05-16T21:54:41.486Z,4.28
2023-05-16T21:57:09.395Z,3.53
2023-05-16T21:59:37.447Z,4.15
2023-05-16T22:02:05.510Z,5.22
2023-05-16T22:04:34.151Z,4.57
2023-05-16T22:07:01.946Z,3.58
2023-05-16T22:09:29.465Z,3.55
2023-05-16T22:11:56.919Z,4.50
2023-05-16T22:14:25.607Z,3.95
2023-05-16T22:16:53.640Z,2.70
2023-05-16T22:19:27.296Z,4.85
2023-05-16T22:21:56.104Z,5.07
2023-05-16T22:24:23.498Z,3.50
2023-05-16T22:26:50.912Z,5.05
2023-05-16T22:29:18.955Z,3.35
2023-05-16T22:31:46.315Z,3.63
2023-05-16T22:34:13.875Z,3.03
2023-05-16T22:36:42.653Z,3.75
2023-05-16T22:39:10.732Z,2.45
2023-05-16T22:41:38.319Z,5.55
2023-05-16T22:44:05.820Z,5.82
2023-05-16T22:46:33.253Z,2.22
2023-05-16T22:49:00.727Z,4.43
2023-05-16T22:51:28.353Z,5.65
2023-05-16T22:53:55.760Z,2.85
2023-05-16T22:56:23.297Z,4.13
2023-05-16T22:58:50.697Z,3.15
2023-05-16T23:01:18.156Z,4.90
2023-05-16T23:03:45.629Z,3.80
2023-05-16T23:06:13.111Z,4.55
2023-05-16T23:08:42.205Z,5.80
2023-05-16T23:11:09.742Z,2.63
2023-05-16T23:13:37.191Z,4.40
2023-05-16T23:16:04.789Z,3.22
2023-05-16T23:18:32.328Z,4.93
2023-05-16T23:20:59.821Z,5.97
2023-05-16T23:23:27.292Z,3.75
2023-05-16T23:25:55.031Z,6.70
2023-05-16T23:28:22.684Z,2.30
2023-05-16T23:30:50.117Z,3.13
2023-05-16T23:33:18.292Z,3.05
2023-05-16T23:35:46.086Z,5.80
2023-05-16T23:38:13.860Z,2.67
2023-05-16T23:40:41.301Z,2.17
2023-05-16T23:43:08.934Z,4.13
2023-05-16T23:45:36.296Z,2.40
2023-05-16T23:48:05.177Z,5.38
2023-05-16T23:50:32.759Z,3.25
2023-05-16T23:53:00.182Z,2.67
2023-05-16T23:55:27.344Z,3.70
2023-05-16T23:57:54.389Z,4.50
